Conway, North Carolina
Current Conditions -  °F | °C
As of 7:15 AM on Thursday 29 Jan 2015 (Local Time) from KASJ Reporting Station
Clear Clear  
Wind Chill: 19°   Ceiling: Unl
Heat Index: 19°   Visibility: 10mi
Dew Point: 14°   Wind: 0mph
Humidity: 83%   Direction: NA
Pressure: 30.37"   Gusts: NA
Location:  36.44°N, 77.23°W
Report Text: KASJ 291215Z AUTO 00000KT 10SM CLR M07/M10 A3037 RMK AO2 T10741099
Loading
Personal Weather Stations






























Interactive Weather Map New forecast layout! Learn more

10-Day Weather Forecast

Advertisements
Track Severe Weather on mobile